sensor_id;sensor_type;location;lat;lon;timestamp;temperature;humidity
62573;DHT22;48626;51.678;5.806;2023-10-13T00:00:34;18.20;99.90
62573;DHT22;48626;51.678;5.806;2023-10-13T00:03:04;18.20;99.90
62573;DHT22;48626;51.678;5.806;2023-10-13T00:05:31;18.20;99.90
62573;DHT22;48626;51.678;5.806;2023-10-13T00:07:59;18.20;99.90
62573;DHT22;48626;51.678;5.806;2023-10-13T00:10:28;18.20;99.90
62573;DHT22;48626;51.678;5.806;2023-10-13T00:12:55;18.20;99.90
62573;DHT22;48626;51.678;5.806;2023-10-13T00:15:31;18.20;99.90
62573;DHT22;48626;51.678;5.806;2023-10-13T00:18:06;18.20;99.90
62573;DHT22;48626;51.678;5.806;2023-10-13T00:20:43;18.20;99.90
62573;DHT22;48626;51.678;5.806;2023-10-13T00:23:16;18.20;99.90
62573;DHT22;48626;51.678;5.806;2023-10-13T00:25:49;18.20;99.90
62573;DHT22;48626;51.678;5.806;2023-10-13T00:28:18;18.20;99.90
62573;DHT22;48626;51.678;5.806;2023-10-13T00:30:51;18.20;99.90
62573;DHT22;48626;51.678;5.806;2023-10-13T00:33:26;18.20;99.90
62573;DHT22;48626;51.678;5.806;2023-10-13T00:35:52;18.20;99.90
62573;DHT22;48626;51.678;5.806;2023-10-13T00:38:18;18.20;99.90
62573;DHT22;48626;51.678;5.806;2023-10-13T00:40:45;18.20;99.90
62573;DHT22;48626;51.678;5.806;2023-10-13T00:43:18;18.20;99.90
62573;DHT22;48626;51.678;5.806;2023-10-13T00:45:45;18.20;99.90
62573;DHT22;48626;51.678;5.806;2023-10-13T00:48:25;18.20;99.90
62573;DHT22;48626;51.678;5.806;2023-10-13T00:51:06;18.20;99.90
62573;DHT22;48626;51.678;5.806;2023-10-13T00:53:34;18.10;99.90
62573;DHT22;48626;51.678;5.806;2023-10-13T00:56:01;18.10;99.90
62573;DHT22;48626;51.678;5.806;2023-10-13T00:58:33;18.10;99.90
62573;DHT22;48626;51.678;5.806;2023-10-13T01:01:00;18.10;99.90
62573;DHT22;48626;51.678;5.806;2023-10-13T01:03:44;18.00;99.90
62573;DHT22;48626;51.678;5.806;2023-10-13T01:06:11;18.00;99.90
62573;DHT22;48626;51.678;5.806;2023-10-13T01:08:37;18.00;99.90
62573;DHT22;48626;51.678;5.806;2023-10-13T01:11:04;18.00;99.90
62573;DHT22;48626;51.678;5.806;2023-10-13T01:13:33;18.00;99.90
62573;DHT22;48626;51.678;5.806;2023-10-13T01:16:02;18.00;99.90
62573;DHT22;48626;51.678;5.806;2023-10-13T01:18:28;18.00;99.90
62573;DHT22;48626;51.678;5.806;2023-10-13T01:20:54;18.00;99.90
62573;DHT22;48626;51.678;5.806;2023-10-13T01:23:27;18.00;99.90
62573;DHT22;48626;51.678;5.806;2023-10-13T01:25:54;18.00;99.90
62573;DHT22;48626;51.678;5.806;2023-10-13T01:28:22;18.00;99.90
62573;DHT22;48626;51.678;5.806;2023-10-13T01:30:49;18.00;99.90
62573;DHT22;48626;51.678;5.806;2023-10-13T01:33:19;18.00;99.90
62573;DHT22;48626;51.678;5.806;2023-10-13T01:35:55;18.00;99.90
62573;DHT22;48626;51.678;5.806;2023-10-13T01:38:24;17.90;99.90
62573;DHT22;48626;51.678;5.806;2023-10-13T01:40:54;17.90;99.90
62573;DHT22;48626;51.678;5.806;2023-10-13T01:43:22;17.90;99.90
62573;DHT22;48626;51.678;5.806;2023-10-13T01:45:48;18.00;99.90
62573;DHT22;48626;51.678;5.806;2023-10-13T01:48:15;17.90;99.90
62573;DHT22;48626;51.678;5.806;2023-10-13T01:50:46;17.90;99.90
62573;DHT22;48626;51.678;5.806;2023-10-13T01:53:25;17.90;99.90
62573;DHT22;48626;51.678;5.806;2023-10-13T01:55:54;17.90;99.90
62573;DHT22;48626;51.678;5.806;2023-10-13T01:58:23;17.90;99.90
62573;DHT22;48626;51.678;5.806;2023-10-13T02:00:52;17.90;99.90
62573;DHT22;48626;51.678;5.806;2023-10-13T02:03:22;17.90;99.90
62573;DHT22;48626;51.678;5.806;2023-10-13T02:05:49;17.90;99.90
62573;DHT22;48626;51.678;5.806;2023-10-13T02:08:18;17.90;99.90
62573;DHT22;48626;51.678;5.806;2023-10-13T02:10:53;17.90;99.90
62573;DHT22;48626;51.678;5.806;2023-10-13T02:13:20;17.90;99.90
62573;DHT22;48626;51.678;5.806;2023-10-13T02:15:48;17.90;99.90
62573;DHT22;48626;51.678;5.806;2023-10-13T02:18:19;17.90;99.90
62573;DHT22;48626;51.678;5.806;2023-10-13T02:21:02;17.90;99.90
62573;DHT22;48626;51.678;5.806;2023-10-13T02:23:38;17.90;99.90
62573;DHT22;48626;51.678;5.806;2023-10-13T02:26:11;17.90;99.90
62573;DHT22;48626;51.678;5.806;2023-10-13T02:28:40;17.90;99.90
62573;DHT22;48626;51.678;5.806;2023-10-13T02:31:06;17.90;99.90
62573;DHT22;48626;51.678;5.806;2023-10-13T02:33:33;17.90;99.90
62573;DHT22;48626;51.678;5.806;2023-10-13T02:36:01;17.90;99.90
62573;DHT22;48626;51.678;5.806;2023-10-13T02:38:33;18.00;99.90
62573;DHT22;48626;51.678;5.806;2023-10-13T02:41:15;18.00;99.90
62573;DHT22;48626;51.678;5.806;2023-10-13T02:43:45;18.00;99.90
62573;DHT22;48626;51.678;5.806;2023-10-13T02:46:11;18.00;99.90
62573;DHT22;48626;51.678;5.806;2023-10-13T02:48:36;18.00;99.90
62573;DHT22;48626;51.678;5.806;2023-10-13T02:51:06;18.00;99.90
62573;DHT22;48626;51.678;5.806;2023-10-13T02:53:42;18.00;99.90
62573;DHT22;48626;51.678;5.806;2023-10-13T02:56:07;18.00;99.90
62573;DHT22;48626;51.678;5.806;2023-10-13T02:58:33;18.00;99.90
62573;DHT22;48626;51.678;5.806;2023-10-13T03:01:09;18.00;99.90
62573;DHT22;48626;51.678;5.806;2023-10-13T03:03:43;18.00;99.90
62573;DHT22;48626;51.678;5.806;2023-10-13T03:06:13;18.00;99.90
62573;DHT22;48626;51.678;5.806;2023-10-13T03:08:39;18.00;99.90
62573;DHT22;48626;51.678;5.806;2023-10-13T03:11:05;18.10;99.90
62573;DHT22;48626;51.678;5.806;2023-10-13T03:13:31;18.10;99.90
62573;DHT22;48626;51.678;5.806;2023-10-13T03:15:59;18.10;99.90
62573;DHT22;48626;51.678;5.806;2023-10-13T03:18:25;18.10;99.90
62573;DHT22;48626;51.678;5.806;2023-10-13T03:20:51;18.10;99.90
62573;DHT22;48626;51.678;5.806;2023-10-13T03:23:22;18.10;99.90
62573;DHT22;48626;51.678;5.806;2023-10-13T03:25:49;18.20;99.90
62573;DHT22;48626;51.678;5.806;2023-10-13T03:28:15;18.10;99.90
62573;DHT22;48626;51.678;5.806;2023-10-13T03:30:43;18.20;99.90
62573;DHT22;48626;51.678;5.806;2023-10-13T03:33:10;18.20;99.90
62573;DHT22;48626;51.678;5.806;2023-10-13T03:35:38;18.10;99.90
62573;DHT22;48626;51.678;5.806;2023-10-13T03:38:06;18.20;99.90
62573;DHT22;48626;51.678;5.806;2023-10-13T03:40:50;18.20;99.90
62573;DHT22;48626;51.678;5.806;2023-10-13T03:43:30;18.10;99.90
62573;DHT22;48626;51.678;5.806;2023-10-13T03:45:56;18.20;99.90
62573;DHT22;48626;51.678;5.806;2023-10-13T03:48:33;18.20;99.90
62573;DHT22;48626;51.678;5.806;2023-10-13T03:51:06;18.20;99.90
62573;DHT22;48626;51.678;5.806;2023-10-13T03:53:37;18.20;99.90
62573;DHT22;48626;51.678;5.806;2023-10-13T03:56:15;18.20;99.90
62573;DHT22;48626;51.678;5.806;2023-10-13T03:58:42;18.20;99.90
62573;DHT22;48626;51.678;5.806;2023-10-13T04:01:11;18.20;99.90
62573;DHT22;48626;51.678;5.806;2023-10-13T04:03:42;18.30;99.90
62573;DHT22;48626;51.678;5.806;2023-10-13T04:06:27;18.30;99.90
62573;DHT22;48626;51.678;5.806;2023-10-13T04:09:28;18.30;99.90
62573;DHT22;48626;51.678;5.806;2023-10-13T04:12:04;18.30;99.90
62573;DHT22;48626;51.678;5.806;2023-10-13T04:14:30;18.30;99.90
62573;DHT22;48626;51.678;5.806;2023-10-13T04:17:15;18.30;99.90
62573;DHT22;48626;51.678;5.806;2023-10-13T04:19:44;18.30;99.90
62573;DHT22;48626;51.678;5.806;2023-10-13T04:22:28;18.30;99.90
62573;DHT22;48626;51.678;5.806;2023-10-13T04:25:22;18.20;99.90
62573;DHT22;48626;51.678;5.806;2023-10-13T04:28:01;18.20;99.90
62573;DHT22;48626;51.678;5.806;2023-10-13T04:30:42;18.20;99.90
62573;DHT22;48626;51.678;5.806;2023-10-13T04:33:17;18.30;99.90
62573;DHT22;48626;51.678;5.806;2023-10-13T04:36:05;18.20;99.90
62573;DHT22;48626;51.678;5.806;2023-10-13T04:38:51;18.30;99.90
62573;DHT22;48626;51.678;5.806;2023-10-13T04:41:40;18.30;99.90
62573;DHT22;48626;51.678;5.806;2023-10-13T04:44:16;18.30;99.90
62573;DHT22;48626;51.678;5.806;2023-10-13T04:47:01;18.30;99.90
62573;DHT22;48626;51.678;5.806;2023-10-13T04:49:28;18.30;99.90
62573;DHT22;48626;51.678;5.806;2023-10-13T04:51:58;18.30;99.90
62573;DHT22;48626;51.678;5.806;2023-10-13T04:54:37;18.30;99.90
62573;DHT22;48626;51.678;5.806;2023-10-13T04:57:22;18.40;99.90
62573;DHT22;48626;51.678;5.806;2023-10-13T05:00:06;18.40;99.90
62573;DHT22;48626;51.678;5.806;2023-10-13T05:02:36;18.40;99.90
62573;DHT22;48626;51.678;5.806;2023-10-13T05:05:03;18.40;99.90
62573;DHT22;48626;51.678;5.806;2023-10-13T05:07:32;18.40;99.90
62573;DHT22;48626;51.678;5.806;2023-10-13T05:10:17;18.40;99.90
62573;DHT22;48626;51.678;5.806;2023-10-13T05:13:01;18.40;99.90
62573;DHT22;48626;51.678;5.806;2023-10-13T05:15:48;18.40;99.90
62573;DHT22;48626;51.678;5.806;2023-10-13T05:18:33;18.50;99.90
62573;DHT22;48626;51.678;5.806;2023-10-13T05:21:18;18.40;99.90
62573;DHT22;48626;51.678;5.806;2023-10-13T05:24:03;18.40;99.90
62573;DHT22;48626;51.678;5.806;2023-10-13T05:26:47;18.40;99.90
62573;DHT22;48626;51.678;5.806;2023-10-13T05:29:31;18.40;99.90
62573;DHT22;48626;51.678;5.806;2023-10-13T05:32:15;18.40;99.90
62573;DHT22;48626;51.678;5.806;2023-10-13T05:34:59;18.40;99.90
62573;DHT22;48626;51.678;5.806;2023-10-13T05:37:43;18.40;99.90
62573;DHT22;48626;51.678;5.806;2023-10-13T05:40:27;18.40;99.90
62573;DHT22;48626;51.678;5.806;2023-10-13T05:43:11;18.40;99.90
62573;DHT22;48626;51.678;5.806;2023-10-13T05:46:02;18.40;99.90
62573;DHT22;48626;51.678;5.806;2023-10-13T05:48:48;18.40;99.90
62573;DHT22;48626;51.678;5.806;2023-10-13T05:51:20;18.40;99.90
62573;DHT22;48626;51.678;5.806;2023-10-13T05:53:58;18.40;99.90
62573;DHT22;48626;51.678;5.806;2023-10-13T05:56:43;18.40;99.90
62573;DHT22;48626;51.678;5.806;2023-10-13T05:59:28;18.40;99.90
62573;DHT22;48626;51.678;5.806;2023-10-13T06:02:14;18.40;99.90
62573;DHT22;48626;51.678;5.806;2023-10-13T06:05:00;18.40;99.90
62573;DHT22;48626;51.678;5.806;2023-10-13T06:07:44;18.40;99.90
62573;DHT22;48626;51.678;5.806;2023-10-13T06:10:28;18.40;99.90
62573;DHT22;48626;51.678;5.806;2023-10-13T06:13:13;18.50;99.90
62573;DHT22;48626;51.678;5.806;2023-10-13T06:15:57;18.50;99.90
62573;DHT22;48626;51.678;5.806;2023-10-13T06:18:41;18.50;99.90
62573;DHT22;48626;51.678;5.806;2023-10-13T06:21:25;18.50;99.90
62573;DHT22;48626;51.678;5.806;2023-10-13T06:24:09;18.60;99.90
62573;DHT22;48626;51.678;5.806;2023-10-13T06:26:53;18.60;99.90
62573;DHT22;48626;51.678;5.806;2023-10-13T06:29:37;18.60;99.90
62573;DHT22;48626;51.678;5.806;2023-10-13T06:32:03;18.60;99.90
62573;DHT22;48626;51.678;5.806;2023-10-13T06:34:36;18.70;99.90
62573;DHT22;48626;51.678;5.806;2023-10-13T06:37:25;18.70;99.90
62573;DHT22;48626;51.678;5.806;2023-10-13T06:39:53;18.80;99.90
62573;DHT22;48626;51.678;5.806;2023-10-13T06:42:27;18.70;99.90
62573;DHT22;48626;51.678;5.806;2023-10-13T06:44:54;18.80;99.90
62573;DHT22;48626;51.678;5.806;2023-10-13T06:47:23;18.80;99.90
62573;DHT22;48626;51.678;5.806;2023-10-13T06:49:50;18.80;99.90
62573;DHT22;48626;51.678;5.806;2023-10-13T06:52:20;18.80;99.90
62573;DHT22;48626;51.678;5.806;2023-10-13T06:54:50;18.80;99.90
62573;DHT22;48626;51.678;5.806;2023-10-13T06:57:16;18.90;99.90
62573;DHT22;48626;51.678;5.806;2023-10-13T06:59:46;18.80;99.90
62573;DHT22;48626;51.678;5.806;2023-10-13T07:02:12;18.90;99.90
62573;DHT22;48626;51.678;5.806;2023-10-13T07:04:50;18.90;99.90
62573;DHT22;48626;51.678;5.806;2023-10-13T07:07:38;18.90;99.90
62573;DHT22;48626;51.678;5.806;2023-10-13T07:10:11;18.90;99.90
62573;DHT22;48626;51.678;5.806;2023-10-13T07:12:40;18.90;99.90
62573;DHT22;48626;51.678;5.806;2023-10-13T07:15:12;18.90;99.90
62573;DHT22;48626;51.678;5.806;2023-10-13T07:17:48;18.90;99.90
62573;DHT22;48626;51.678;5.806;2023-10-13T07:20:20;18.90;99.90
62573;DHT22;48626;51.678;5.806;2023-10-13T07:22:58;18.90;99.90
62573;DHT22;48626;51.678;5.806;2023-10-13T07:25:34;18.90;99.90
62573;DHT22;48626;51.678;5.806;2023-10-13T07:28:04;18.90;99.90
62573;DHT22;48626;51.678;5.806;2023-10-13T07:30:30;18.90;99.90
62573;DHT22;48626;51.678;5.806;2023-10-13T07:33:05;18.90;99.90
62573;DHT22;48626;51.678;5.806;2023-10-13T07:35:31;19.00;99.90
62573;DHT22;48626;51.678;5.806;2023-10-13T07:38:01;19.00;99.90
62573;DHT22;48626;51.678;5.806;2023-10-13T07:40:27;19.00;99.90
62573;DHT22;48626;51.678;5.806;2023-10-13T07:42:54;19.00;99.90
62573;DHT22;48626;51.678;5.806;2023-10-13T07:45:27;19.10;99.90
62573;DHT22;48626;51.678;5.806;2023-10-13T07:48:02;19.20;99.90
62573;DHT22;48626;51.678;5.806;2023-10-13T07:50:34;19.20;99.90
62573;DHT22;48626;51.678;5.806;2023-10-13T07:52:59;19.20;99.90
62573;DHT22;48626;51.678;5.806;2023-10-13T07:55:31;19.30;99.90
62573;DHT22;48626;51.678;5.806;2023-10-13T07:57:59;19.30;99.90
62573;DHT22;48626;51.678;5.806;2023-10-13T08:00:25;19.40;99.90
62573;DHT22;48626;51.678;5.806;2023-10-13T08:03:04;19.40;99.90
62573;DHT22;48626;51.678;5.806;2023-10-13T08:05:43;19.50;99.90
62573;DHT22;48626;51.678;5.806;2023-10-13T08:08:23;19.50;99.90
62573;DHT22;48626;51.678;5.806;2023-10-13T08:10:52;19.60;99.90
62573;DHT22;48626;51.678;5.806;2023-10-13T08:13:21;19.60;99.90
62573;DHT22;48626;51.678;5.806;2023-10-13T08:15:48;19.60;99.90
62573;DHT22;48626;51.678;5.806;2023-10-13T08:18:16;19.60;99.90
62573;DHT22;48626;51.678;5.806;2023-10-13T08:21:05;19.70;99.90
62573;DHT22;48626;51.678;5.806;2023-10-13T08:23:32;19.70;99.90
62573;DHT22;48626;51.678;5.806;2023-10-13T08:26:16;19.80;99.90
62573;DHT22;48626;51.678;5.806;2023-10-13T08:28:58;19.80;99.90
62573;DHT22;48626;51.678;5.806;2023-10-13T08:31:48;19.90;99.90
62573;DHT22;48626;51.678;5.806;2023-10-13T08:34:35;19.90;99.90
62573;DHT22;48626;51.678;5.806;2023-10-13T08:37:14;20.00;99.90
62573;DHT22;48626;51.678;5.806;2023-10-13T08:39:50;20.00;99.90
62573;DHT22;48626;51.678;5.806;2023-10-13T08:42:37;20.10;99.90
62573;DHT22;48626;51.678;5.806;2023-10-13T08:45:15;20.30;99.90
62573;DHT22;48626;51.678;5.806;2023-10-13T08:47:57;20.40;99.90
62573;DHT22;48626;51.678;5.806;2023-10-13T08:50:50;20.40;99.90
62573;DHT22;48626;51.678;5.806;2023-10-13T08:53:20;20.50;99.90
62573;DHT22;48626;51.678;5.806;2023-10-13T08:56:05;20.60;99.90
62573;DHT22;48626;51.678;5.806;2023-10-13T08:58:37;20.60;99.90
62573;DHT22;48626;51.678;5.806;2023-10-13T09:06:53;20.90;99.90
62573;DHT22;48626;51.678;5.806;2023-10-13T09:14:56;20.80;99.90
62573;DHT22;48626;51.678;5.806;2023-10-13T09:17:31;20.90;99.90
62573;DHT22;48626;51.678;5.806;2023-10-13T09:20:06;20.90;99.90
62573;DHT22;48626;51.678;5.806;2023-10-13T09:22:51;20.90;99.90
62573;DHT22;48626;51.678;5.806;2023-10-13T09:25:35;20.90;99.90
62573;DHT22;48626;51.678;5.806;2023-10-13T09:28:03;20.90;99.90
62573;DHT22;48626;51.678;5.806;2023-10-13T09:30:45;20.80;99.90
62573;DHT22;48626;51.678;5.806;2023-10-13T09:33:11;20.80;99.90
62573;DHT22;48626;51.678;5.806;2023-10-13T09:35:46;20.80;99.90
62573;DHT22;48626;51.678;5.806;2023-10-13T09:38:18;20.80;99.90
62573;DHT22;48626;51.678;5.806;2023-10-13T09:40:44;20.80;99.90
62573;DHT22;48626;51.678;5.806;2023-10-13T09:43:17;20.80;99.90
62573;DHT22;48626;51.678;5.806;2023-10-13T09:45:46;20.80;99.90
62573;DHT22;48626;51.678;5.806;2023-10-13T09:48:33;20.80;99.90
62573;DHT22;48626;51.678;5.806;2023-10-13T09:51:03;20.80;99.90
62573;DHT22;48626;51.678;5.806;2023-10-13T09:53:35;20.90;99.90
62573;DHT22;48626;51.678;5.806;2023-10-13T09:56:09;20.90;99.90
62573;DHT22;48626;51.678;5.806;2023-10-13T09:58:58;21.10;99.90
62573;DHT22;48626;51.678;5.806;2023-10-13T10:01:28;21.10;99.90
62573;DHT22;48626;51.678;5.806;2023-10-13T10:04:07;21.10;99.90
62573;DHT22;48626;51.678;5.806;2023-10-13T10:06:37;21.10;99.90
62573;DHT22;48626;51.678;5.806;2023-10-13T10:09:11;21.10;99.90
62573;DHT22;48626;51.678;5.806;2023-10-13T10:12:11;21.20;99.90
62573;DHT22;48626;51.678;5.806;2023-10-13T10:17:41;21.50;99.90
62573;DHT22;48626;51.678;5.806;2023-10-13T10:20:07;21.50;99.90
62573;DHT22;48626;51.678;5.806;2023-10-13T10:22:59;21.60;99.90
62573;DHT22;48626;51.678;5.806;2023-10-13T10:25:35;21.60;99.90
62573;DHT22;48626;51.678;5.806;2023-10-13T10:28:10;21.60;99.90
62573;DHT22;48626;51.678;5.806;2023-10-13T10:30:41;21.50;99.90
62573;DHT22;48626;51.678;5.806;2023-10-13T10:33:08;21.40;99.90
62573;DHT22;48626;51.678;5.806;2023-10-13T10:36:00;21.40;99.90
62573;DHT22;48626;51.678;5.806;2023-10-13T10:38:25;21.20;99.90
62573;DHT22;48626;51.678;5.806;2023-10-13T10:40:57;21.20;99.90
62573;DHT22;48626;51.678;5.806;2023-10-13T10:43:43;21.10;99.90
62573;DHT22;48626;51.678;5.806;2023-10-13T10:46:18;21.10;99.90
62573;DHT22;48626;51.678;5.806;2023-10-13T10:48:44;21.10;99.90
62573;DHT22;48626;51.678;5.806;2023-10-13T10:51:11;21.10;99.90
62573;DHT22;48626;51.678;5.806;2023-10-13T10:53:40;21.10;99.90
62573;DHT22;48626;51.678;5.806;2023-10-13T10:56:13;21.10;99.90
62573;DHT22;48626;51.678;5.806;2023-10-13T10:58:50;21.20;99.90
62573;DHT22;48626;51.678;5.806;2023-10-13T11:01:24;21.30;99.90
62573;DHT22;48626;51.678;5.806;2023-10-13T11:04:02;21.20;99.90
62573;DHT22;48626;51.678;5.806;2023-10-13T11:06:35;21.30;99.90
62573;DHT22;48626;51.678;5.806;2023-10-13T11:09:08;21.30;99.90
62573;DHT22;48626;51.678;5.806;2023-10-13T11:11:55;21.30;99.90
62573;DHT22;48626;51.678;5.806;2023-10-13T11:14:28;21.40;99.90
62573;DHT22;48626;51.678;5.806;2023-10-13T11:16:55;21.60;99.90
62573;DHT22;48626;51.678;5.806;2023-10-13T11:19:35;21.60;99.90
62573;DHT22;48626;51.678;5.806;2023-10-13T11:22:13;21.70;99.90
62573;DHT22;48626;51.678;5.806;2023-10-13T11:25:04;21.80;99.90
62573;DHT22;48626;51.678;5.806;2023-10-13T11:27:41;22.10;99.90
62573;DHT22;48626;51.678;5.806;2023-10-13T11:30:27;22.20;99.90
62573;DHT22;48626;51.678;5.806;2023-10-13T11:33:10;22.30;99.90
62573;DHT22;48626;51.678;5.806;2023-10-13T11:35:37;22.20;99.90
62573;DHT22;48626;51.678;5.806;2023-10-13T11:38:23;22.20;99.90
62573;DHT22;48626;51.678;5.806;2023-10-13T11:43:35;22.10;99.90
62573;DHT22;48626;51.678;5.806;2023-10-13T11:46:22;22.20;99.90
62573;DHT22;48626;51.678;5.806;2023-10-13T11:49:00;22.30;99.90
62573;DHT22;48626;51.678;5.806;2023-10-13T11:51:33;22.40;99.90
62573;DHT22;48626;51.678;5.806;2023-10-13T11:53:59;22.60;99.90
62573;DHT22;48626;51.678;5.806;2023-10-13T11:56:24;22.70;99.90
62573;DHT22;48626;51.678;5.806;2023-10-13T11:58:51;22.90;99.90
62573;DHT22;48626;51.678;5.806;2023-10-13T12:01:17;23.00;99.90
62573;DHT22;48626;51.678;5.806;2023-10-13T12:03:44;23.10;99.90
62573;DHT22;48626;51.678;5.806;2023-10-13T12:06:29;23.10;99.90
62573;DHT22;48626;51.678;5.806;2023-10-13T12:11:37;23.00;99.90
62573;DHT22;48626;51.678;5.806;2023-10-13T12:14:13;23.00;99.90
62573;DHT22;48626;51.678;5.806;2023-10-13T12:16:53;22.90;99.90
62573;DHT22;48626;51.678;5.806;2023-10-13T12:19:22;22.90;99.90
62573;DHT22;48626;51.678;5.806;2023-10-13T12:21:57;22.80;99.90
62573;DHT22;48626;51.678;5.806;2023-10-13T12:24:23;22.80;99.90
62573;DHT22;48626;51.678;5.806;2023-10-13T12:27:06;22.80;99.90
62573;DHT22;48626;51.678;5.806;2023-10-13T12:29:51;22.80;99.90
62573;DHT22;48626;51.678;5.806;2023-10-13T12:32:18;22.80;99.90
62573;DHT22;48626;51.678;5.806;2023-10-13T12:34:56;22.90;99.90
62573;DHT22;48626;51.678;5.806;2023-10-13T12:37:27;23.00;99.90
62573;DHT22;48626;51.678;5.806;2023-10-13T12:40:11;23.00;99.90
62573;DHT22;48626;51.678;5.806;2023-10-13T12:42:55;23.10;99.90
62573;DHT22;48626;51.678;5.806;2023-10-13T12:45:41;23.20;99.90
62573;DHT22;48626;51.678;5.806;2023-10-13T12:48:25;23.20;99.90
62573;DHT22;48626;51.678;5.806;2023-10-13T12:51:09;23.20;99.90
62573;DHT22;48626;51.678;5.806;2023-10-13T12:53:55;23.10;99.90
62573;DHT22;48626;51.678;5.806;2023-10-13T12:56:27;22.90;99.90
62573;DHT22;48626;51.678;5.806;2023-10-13T12:58:54;22.80;99.90
62573;DHT22;48626;51.678;5.806;2023-10-13T13:01:21;22.80;99.90
62573;DHT22;48626;51.678;5.806;2023-10-13T13:03:47;22.80;99.90
62573;DHT22;48626;51.678;5.806;2023-10-13T13:06:23;22.80;99.90
62573;DHT22;48626;51.678;5.806;2023-10-13T13:08:56;22.90;99.90
62573;DHT22;48626;51.678;5.806;2023-10-13T13:11:23;22.80;99.90
62573;DHT22;48626;51.678;5.806;2023-10-13T13:13:49;22.80;99.90
62573;DHT22;48626;51.678;5.806;2023-10-13T13:16:15;22.80;99.90
62573;DHT22;48626;51.678;5.806;2023-10-13T13:18:49;22.70;99.90
62573;DHT22;48626;51.678;5.806;2023-10-13T13:21:15;22.70;99.90
62573;DHT22;48626;51.678;5.806;2023-10-13T13:23:47;22.70;99.90
62573;DHT22;48626;51.678;5.806;2023-10-13T13:26:12;22.60;99.90
62573;DHT22;48626;51.678;5.806;2023-10-13T13:28:48;22.60;99.90
62573;DHT22;48626;51.678;5.806;2023-10-13T13:31:21;22.60;99.90
62573;DHT22;48626;51.678;5.806;2023-10-13T13:33:56;22.50;99.90
62573;DHT22;48626;51.678;5.806;2023-10-13T13:36:22;22.50;99.90
62573;DHT22;48626;51.678;5.806;2023-10-13T13:38:48;22.50;99.90
62573;DHT22;48626;51.678;5.806;2023-10-13T13:41:20;22.50;99.90
62573;DHT22;48626;51.678;5.806;2023-10-13T13:43:50;22.40;99.90
62573;DHT22;48626;51.678;5.806;2023-10-13T13:46:16;22.40;99.90
62573;DHT22;48626;51.678;5.806;2023-10-13T13:48:42;22.50;99.90
62573;DHT22;48626;51.678;5.806;2023-10-13T13:51:08;22.40;99.90
62573;DHT22;48626;51.678;5.806;2023-10-13T13:53:44;22.30;99.90
62573;DHT22;48626;51.678;5.806;2023-10-13T13:56:14;22.30;99.90
62573;DHT22;48626;51.678;5.806;2023-10-13T14:01:12;22.20;99.90
62573;DHT22;48626;51.678;5.806;2023-10-13T14:03:44;22.20;99.90
62573;DHT22;48626;51.678;5.806;2023-10-13T14:06:14;22.10;99.90
62573;DHT22;48626;51.678;5.806;2023-10-13T14:09:00;22.10;99.90
62573;DHT22;48626;51.678;5.806;2023-10-13T14:11:30;22.10;99.90
62573;DHT22;48626;51.678;5.806;2023-10-13T14:14:13;22.10;99.90
62573;DHT22;48626;51.678;5.806;2023-10-13T14:16:40;22.00;99.90
62573;DHT22;48626;51.678;5.806;2023-10-13T14:19:13;22.00;99.90
62573;DHT22;48626;51.678;5.806;2023-10-13T14:22:00;22.00;99.90
62573;DHT22;48626;51.678;5.806;2023-10-13T14:24:33;22.00;99.90
62573;DHT22;48626;51.678;5.806;2023-10-13T14:27:02;21.90;99.90
62573;DHT22;48626;51.678;5.806;2023-10-13T14:29:38;21.90;99.90
62573;DHT22;48626;51.678;5.806;2023-10-13T14:32:07;22.00;99.90
62573;DHT22;48626;51.678;5.806;2023-10-13T14:34:38;21.90;99.90
62573;DHT22;48626;51.678;5.806;2023-10-13T14:37:03;22.00;99.90
62573;DHT22;48626;51.678;5.806;2023-10-13T14:39:30;22.00;99.90
62573;DHT22;48626;51.678;5.806;2023-10-13T14:41:56;22.00;99.90
62573;DHT22;48626;51.678;5.806;2023-10-13T14:44:21;22.10;99.90
62573;DHT22;48626;51.678;5.806;2023-10-13T14:46:52;22.10;99.90
62573;DHT22;48626;51.678;5.806;2023-10-13T14:49:21;22.10;99.90
62573;DHT22;48626;51.678;5.806;2023-10-13T14:51:46;22.10;99.90
62573;DHT22;48626;51.678;5.806;2023-10-13T14:54:12;22.00;99.90
62573;DHT22;48626;51.678;5.806;2023-10-13T14:56:40;22.00;99.90
62573;DHT22;48626;51.678;5.806;2023-10-13T14:59:08;22.00;99.90
62573;DHT22;48626;51.678;5.806;2023-10-13T15:01:42;22.00;99.90
62573;DHT22;48626;51.678;5.806;2023-10-13T15:04:08;22.00;99.90
62573;DHT22;48626;51.678;5.806;2023-10-13T15:06:34;22.00;99.90
62573;DHT22;48626;51.678;5.806;2023-10-13T15:09:00;22.00;99.90
62573;DHT22;48626;51.678;5.806;2023-10-13T15:11:27;22.10;99.90
62573;DHT22;48626;51.678;5.806;2023-10-13T15:14:04;22.00;99.90
62573;DHT22;48626;51.678;5.806;2023-10-13T15:16:33;22.00;99.90
62573;DHT22;48626;51.678;5.806;2023-10-13T15:19:02;22.00;99.90
62573;DHT22;48626;51.678;5.806;2023-10-13T15:21:32;22.00;99.90
62573;DHT22;48626;51.678;5.806;2023-10-13T15:24:04;21.90;99.90
62573;DHT22;48626;51.678;5.806;2023-10-13T15:26:42;21.90;99.90
62573;DHT22;48626;51.678;5.806;2023-10-13T15:29:14;21.80;99.90
62573;DHT22;48626;51.678;5.806;2023-10-13T15:31:44;21.80;99.90
62573;DHT22;48626;51.678;5.806;2023-10-13T15:34:25;21.70;99.90
62573;DHT22;48626;51.678;5.806;2023-10-13T15:36:54;21.50;99.90
62573;DHT22;48626;51.678;5.806;2023-10-13T15:39:21;21.30;99.90
62573;DHT22;48626;51.678;5.806;2023-10-13T15:41:50;21.20;99.90
62573;DHT22;48626;51.678;5.806;2023-10-13T15:44:20;21.10;99.90
62573;DHT22;48626;51.678;5.806;2023-10-13T15:46:47;21.00;99.90
62573;DHT22;48626;51.678;5.806;2023-10-13T15:49:15;20.90;99.90
62573;DHT22;48626;51.678;5.806;2023-10-13T15:51:41;20.90;99.90
62573;DHT22;48626;51.678;5.806;2023-10-13T15:54:07;20.90;99.90
62573;DHT22;48626;51.678;5.806;2023-10-13T15:56:47;20.90;99.90
62573;DHT22;48626;51.678;5.806;2023-10-13T15:59:14;20.70;99.90
62573;DHT22;48626;51.678;5.806;2023-10-13T16:01:40;20.60;99.90
62573;DHT22;48626;51.678;5.806;2023-10-13T16:04:07;20.50;99.90
62573;DHT22;48626;51.678;5.806;2023-10-13T16:06:38;20.40;99.90
62573;DHT22;48626;51.678;5.806;2023-10-13T16:09:03;20.30;99.90
62573;DHT22;48626;51.678;5.806;2023-10-13T16:11:29;20.30;99.90
62573;DHT22;48626;51.678;5.806;2023-10-13T16:13:55;20.20;99.90
62573;DHT22;48626;51.678;5.806;2023-10-13T16:16:22;20.20;99.90
62573;DHT22;48626;51.678;5.806;2023-10-13T16:18:51;20.20;99.90
62573;DHT22;48626;51.678;5.806;2023-10-13T16:21:19;20.10;99.90
62573;DHT22;48626;51.678;5.806;2023-10-13T16:23:46;20.20;99.90
62573;DHT22;48626;51.678;5.806;2023-10-13T16:26:14;20.20;99.90
62573;DHT22;48626;51.678;5.806;2023-10-13T16:28:39;20.20;99.90
62573;DHT22;48626;51.678;5.806;2023-10-13T16:31:09;20.20;99.90